sensor_id;sensor_type;location;lat;lon;timestamp;P1;durP1;ratioP1;P2;durP2;ratioP2
27632;SDS011;15046;50.930;13.334;2023-07-08T00:00:22;9.15;;;5.53;;
27632;SDS011;15046;50.930;13.334;2023-07-08T00:02:48;8.45;;;4.60;;
27632;SDS011;15046;50.930;13.334;2023-07-08T00:05:16;11.75;;;4.72;;
27632;SDS011;15046;50.930;13.334;2023-07-08T00:07:45;9.18;;;5.53;;
27632;SDS011;15046;50.930;13.334;2023-07-08T00:10:12;10.15;;;4.97;;
27632;SDS011;15046;50.930;13.334;2023-07-08T00:12:40;9.48;;;5.10;;
27632;SDS011;15046;50.930;13.334;2023-07-08T00:15:06;8.70;;;4.97;;
27632;SDS011;15046;50.930;13.334;2023-07-08T00:17:32;8.43;;;4.78;;
27632;SDS011;15046;50.930;13.334;2023-07-08T00:19:58;6.95;;;3.90;;
27632;SDS011;15046;50.930;13.334;2023-07-08T00:22:24;8.20;;;4.63;;
27632;SDS011;15046;50.930;13.334;2023-07-08T00:24:50;8.65;;;4.63;;
27632;SDS011;15046;50.930;13.334;2023-07-08T00:27:16;5.82;;;3.95;;
27632;SDS011;15046;50.930;13.334;2023-07-08T00:29:42;7.10;;;4.50;;
27632;SDS011;15046;50.930;13.334;2023-07-08T00:32:14;9.27;;;5.28;;
27632;SDS011;15046;50.930;13.334;2023-07-08T00:34:40;6.90;;;4.00;;
27632;SDS011;15046;50.930;13.334;2023-07-08T00:37:12;9.32;;;4.82;;
27632;SDS011;15046;50.930;13.334;2023-07-08T00:39:39;9.27;;;4.25;;
27632;SDS011;15046;50.930;13.334;2023-07-08T00:42:16;6.95;;;3.92;;
27632;SDS011;15046;50.930;13.334;2023-07-08T00:44:45;10.05;;;4.78;;
27632;SDS011;15046;50.930;13.334;2023-07-08T00:47:14;6.75;;;4.28;;
27632;SDS011;15046;50.930;13.334;2023-07-08T00:49:52;7.72;;;3.90;;
27632;SDS011;15046;50.930;13.334;2023-07-08T00:52:28;9.88;;;4.15;;
27632;SDS011;15046;50.930;13.334;2023-07-08T00:54:57;6.43;;;3.75;;
27632;SDS011;15046;50.930;13.334;2023-07-08T00:57:28;8.18;;;4.45;;
27632;SDS011;15046;50.930;13.334;2023-07-08T01:00:08;5.95;;;3.67;;
27632;SDS011;15046;50.930;13.334;2023-07-08T01:02:42;8.77;;;4.55;;
27632;SDS011;15046;50.930;13.334;2023-07-08T01:05:18;7.07;;;4.32;;
27632;SDS011;15046;50.930;13.334;2023-07-08T01:07:50;8.45;;;4.10;;
27632;SDS011;15046;50.930;13.334;2023-07-08T01:10:22;7.35;;;3.65;;
27632;SDS011;15046;50.930;13.334;2023-07-08T01:13:11;7.07;;;3.88;;
27632;SDS011;15046;50.930;13.334;2023-07-08T01:15:40;10.50;;;4.22;;
27632;SDS011;15046;50.930;13.334;2023-07-08T01:18:09;6.88;;;4.15;;
27632;SDS011;15046;50.930;13.334;2023-07-08T01:20:37;10.82;;;5.15;;
27632;SDS011;15046;50.930;13.334;2023-07-08T01:23:04;6.72;;;3.70;;
27632;SDS011;15046;50.930;13.334;2023-07-08T01:25:30;10.55;;;4.68;;
27632;SDS011;15046;50.930;13.334;2023-07-08T01:27:56;7.13;;;4.00;;
27632;SDS011;15046;50.930;13.334;2023-07-08T01:30:23;7.93;;;4.50;;
27632;SDS011;15046;50.930;13.334;2023-07-08T01:32:57;8.70;;;4.75;;
27632;SDS011;15046;50.930;13.334;2023-07-08T01:35:28;9.82;;;4.75;;
27632;SDS011;15046;50.930;13.334;2023-07-08T01:37:56;7.60;;;4.28;;
27632;SDS011;15046;50.930;13.334;2023-07-08T01:40:26;6.88;;;4.10;;
27632;SDS011;15046;50.930;13.334;2023-07-08T01:42:57;7.38;;;3.80;;
27632;SDS011;15046;50.930;13.334;2023-07-08T01:45:25;6.95;;;3.50;;
27632;SDS011;15046;50.930;13.334;2023-07-08T01:47:59;6.38;;;3.50;;
27632;SDS011;15046;50.930;13.334;2023-07-08T01:50:28;6.85;;;3.60;;
27632;SDS011;15046;50.930;13.334;2023-07-08T01:52:59;7.88;;;3.80;;
27632;SDS011;15046;50.930;13.334;2023-07-08T01:55:27;6.00;;;3.28;;
27632;SDS011;15046;50.930;13.334;2023-07-08T01:57:54;6.55;;;3.72;;
27632;SDS011;15046;50.930;13.334;2023-07-08T02:00:20;6.63;;;3.45;;
27632;SDS011;15046;50.930;13.334;2023-07-08T02:02:47;6.65;;;3.50;;
27632;SDS011;15046;50.930;13.334;2023-07-08T02:05:14;8.65;;;3.67;;
27632;SDS011;15046;50.930;13.334;2023-07-08T02:07:40;6.40;;;3.72;;
27632;SDS011;15046;50.930;13.334;2023-07-08T02:10:06;6.57;;;3.65;;
27632;SDS011;15046;50.930;13.334;2023-07-08T02:12:32;7.50;;;3.45;;
27632;SDS011;15046;50.930;13.334;2023-07-08T02:14:59;6.47;;;3.60;;
27632;SDS011;15046;50.930;13.334;2023-07-08T02:17:27;7.80;;;3.87;;
27632;SDS011;15046;50.930;13.334;2023-07-08T02:19:56;5.60;;;3.20;;
27632;SDS011;15046;50.930;13.334;2023-07-08T02:22:22;8.57;;;3.42;;
27632;SDS011;15046;50.930;13.334;2023-07-08T02:24:48;6.50;;;3.70;;
27632;SDS011;15046;50.930;13.334;2023-07-08T02:27:14;8.48;;;3.47;;
27632;SDS011;15046;50.930;13.334;2023-07-08T02:29:40;8.13;;;3.53;;
27632;SDS011;15046;50.930;13.334;2023-07-08T02:32:06;6.53;;;3.10;;
27632;SDS011;15046;50.930;13.334;2023-07-08T02:34:34;5.32;;;3.03;;
27632;SDS011;15046;50.930;13.334;2023-07-08T02:37:01;6.25;;;3.05;;
27632;SDS011;15046;50.930;13.334;2023-07-08T02:39:26;6.40;;;3.05;;
27632;SDS011;15046;50.930;13.334;2023-07-08T02:41:53;6.03;;;3.25;;
27632;SDS011;15046;50.930;13.334;2023-07-08T02:44:19;6.78;;;3.42;;
27632;SDS011;15046;50.930;13.334;2023-07-08T02:46:45;6.85;;;3.47;;
27632;SDS011;15046;50.930;13.334;2023-07-08T02:49:11;5.80;;;3.05;;
27632;SDS011;15046;50.930;13.334;2023-07-08T02:51:36;7.70;;;3.13;;
27632;SDS011;15046;50.930;13.334;2023-07-08T02:54:02;7.50;;;3.38;;
27632;SDS011;15046;50.930;13.334;2023-07-08T02:56:29;7.65;;;3.30;;
27632;SDS011;15046;50.930;13.334;2023-07-08T02:58:54;4.80;;;2.97;;
27632;SDS011;15046;50.930;13.334;2023-07-08T03:01:22;6.97;;;2.92;;
27632;SDS011;15046;50.930;13.334;2023-07-08T03:03:48;6.20;;;3.33;;
27632;SDS011;15046;50.930;13.334;2023-07-08T03:06:15;6.72;;;2.92;;
27632;SDS011;15046;50.930;13.334;2023-07-08T03:08:41;5.55;;;3.30;;
27632;SDS011;15046;50.930;13.334;2023-07-08T03:11:07;5.45;;;2.90;;
27632;SDS011;15046;50.930;13.334;2023-07-08T03:13:34;4.88;;;2.80;;
27632;SDS011;15046;50.930;13.334;2023-07-08T03:16:00;5.95;;;3.00;;
27632;SDS011;15046;50.930;13.334;2023-07-08T03:18:27;6.68;;;3.65;;
27632;SDS011;15046;50.930;13.334;2023-07-08T03:20:54;8.52;;;3.60;;
27632;SDS011;15046;50.930;13.334;2023-07-08T03:23:22;10.02;;;3.05;;
27632;SDS011;15046;50.930;13.334;2023-07-08T03:25:51;7.63;;;2.88;;
27632;SDS011;15046;50.930;13.334;2023-07-08T03:28:17;5.13;;;3.03;;
27632;SDS011;15046;50.930;13.334;2023-07-08T03:30:44;6.85;;;3.83;;
27632;SDS011;15046;50.930;13.334;2023-07-08T03:33:15;5.65;;;2.75;;
27632;SDS011;15046;50.930;13.334;2023-07-08T03:35:41;7.57;;;2.95;;
27632;SDS011;15046;50.930;13.334;2023-07-08T03:38:08;6.45;;;2.97;;
27632;SDS011;15046;50.930;13.334;2023-07-08T03:40:34;5.70;;;2.92;;
27632;SDS011;15046;50.930;13.334;2023-07-08T03:43:00;5.43;;;2.85;;
27632;SDS011;15046;50.930;13.334;2023-07-08T03:45:27;5.18;;;2.83;;
27632;SDS011;15046;50.930;13.334;2023-07-08T03:47:52;12.93;;;3.78;;
27632;SDS011;15046;50.930;13.334;2023-07-08T03:50:22;6.35;;;2.85;;
27632;SDS011;15046;50.930;13.334;2023-07-08T03:52:54;5.57;;;2.70;;
27632;SDS011;15046;50.930;13.334;2023-07-08T03:55:20;8.48;;;3.20;;
27632;SDS011;15046;50.930;13.334;2023-07-08T03:57:46;8.23;;;3.15;;
27632;SDS011;15046;50.930;13.334;2023-07-08T04:00:13;6.15;;;3.08;;
27632;SDS011;15046;50.930;13.334;2023-07-08T04:02:43;5.70;;;3.00;;
27632;SDS011;15046;50.930;13.334;2023-07-08T04:05:16;5.72;;;3.22;;
27632;SDS011;15046;50.930;13.334;2023-07-08T04:07:44;6.72;;;3.00;;
27632;SDS011;15046;50.930;13.334;2023-07-08T04:10:11;4.85;;;2.75;;
27632;SDS011;15046;50.930;13.334;2023-07-08T04:12:37;5.53;;;2.90;;
27632;SDS011;15046;50.930;13.334;2023-07-08T04:15:05;5.57;;;2.90;;
27632;SDS011;15046;50.930;13.334;2023-07-08T04:17:33;5.97;;;2.83;;
27632;SDS011;15046;50.930;13.334;2023-07-08T04:20:01;5.13;;;2.65;;
27632;SDS011;15046;50.930;13.334;2023-07-08T04:22:29;7.10;;;3.88;;
27632;SDS011;15046;50.930;13.334;2023-07-08T04:24:54;7.95;;;3.13;;
27632;SDS011;15046;50.930;13.334;2023-07-08T04:27:20;6.30;;;2.85;;
27632;SDS011;15046;50.930;13.334;2023-07-08T04:29:46;6.95;;;3.75;;
27632;SDS011;15046;50.930;13.334;2023-07-08T04:32:13;6.78;;;3.05;;
27632;SDS011;15046;50.930;13.334;2023-07-08T04:34:39;10.10;;;3.70;;
27632;SDS011;15046;50.930;13.334;2023-07-08T04:37:05;6.18;;;3.13;;
27632;SDS011;15046;50.930;13.334;2023-07-08T04:39:31;6.10;;;2.72;;
27632;SDS011;15046;50.930;13.334;2023-07-08T04:41:57;6.07;;;3.30;;
27632;SDS011;15046;50.930;13.334;2023-07-08T04:44:22;7.45;;;2.90;;
27632;SDS011;15046;50.930;13.334;2023-07-08T04:46:50;6.60;;;3.40;;
27632;SDS011;15046;50.930;13.334;2023-07-08T04:51:46;5.50;;;3.00;;
27632;SDS011;15046;50.930;13.334;2023-07-08T04:54:13;6.22;;;3.70;;
27632;SDS011;15046;50.930;13.334;2023-07-08T04:56:43;5.68;;;3.08;;
27632;SDS011;15046;50.930;13.334;2023-07-08T04:59:12;6.55;;;3.25;;
27632;SDS011;15046;50.930;13.334;2023-07-08T05:01:40;5.57;;;2.90;;
27632;SDS011;15046;50.930;13.334;2023-07-08T05:04:06;6.57;;;2.72;;
27632;SDS011;15046;50.930;13.334;2023-07-08T05:06:35;5.38;;;3.22;;
27632;SDS011;15046;50.930;13.334;2023-07-08T05:09:02;7.05;;;3.30;;
27632;SDS011;15046;50.930;13.334;2023-07-08T05:11:29;5.82;;;2.92;;
27632;SDS011;15046;50.930;13.334;2023-07-08T05:13:56;5.72;;;3.20;;
27632;SDS011;15046;50.930;13.334;2023-07-08T05:16:22;6.32;;;3.28;;
27632;SDS011;15046;50.930;13.334;2023-07-08T05:18:48;8.38;;;3.65;;
27632;SDS011;15046;50.930;13.334;2023-07-08T05:21:14;6.25;;;2.65;;
27632;SDS011;15046;50.930;13.334;2023-07-08T05:23:40;7.75;;;3.20;;
27632;SDS011;15046;50.930;13.334;2023-07-08T05:26:06;5.20;;;3.40;;
27632;SDS011;15046;50.930;13.334;2023-07-08T05:28:32;6.78;;;3.30;;
27632;SDS011;15046;50.930;13.334;2023-07-08T05:30:58;6.28;;;3.40;;
27632;SDS011;15046;50.930;13.334;2023-07-08T05:33:25;5.65;;;3.17;;
27632;SDS011;15046;50.930;13.334;2023-07-08T05:35:54;6.68;;;3.60;;
27632;SDS011;15046;50.930;13.334;2023-07-08T05:38:20;5.97;;;2.83;;
27632;SDS011;15046;50.930;13.334;2023-07-08T05:41:04;7.88;;;3.53;;
27632;SDS011;15046;50.930;13.334;2023-07-08T05:43:29;5.85;;;3.25;;
27632;SDS011;15046;50.930;13.334;2023-07-08T05:45:59;8.98;;;4.30;;
27632;SDS011;15046;50.930;13.334;2023-07-08T05:48:26;7.00;;;3.25;;
27632;SDS011;15046;50.930;13.334;2023-07-08T05:50:52;5.85;;;3.15;;
27632;SDS011;15046;50.930;13.334;2023-07-08T05:53:18;6.82;;;3.28;;
27632;SDS011;15046;50.930;13.334;2023-07-08T05:55:47;5.82;;;3.25;;
27632;SDS011;15046;50.930;13.334;2023-07-08T05:58:14;6.60;;;3.55;;
27632;SDS011;15046;50.930;13.334;2023-07-08T06:00:41;6.22;;;3.58;;
27632;SDS011;15046;50.930;13.334;2023-07-08T06:03:08;5.80;;;3.35;;
27632;SDS011;15046;50.930;13.334;2023-07-08T06:05:38;6.97;;;3.83;;
27632;SDS011;15046;50.930;13.334;2023-07-08T06:08:05;5.90;;;3.75;;
27632;SDS011;15046;50.930;13.334;2023-07-08T06:10:33;7.22;;;3.80;;
27632;SDS011;15046;50.930;13.334;2023-07-08T06:13:00;5.68;;;3.50;;
27632;SDS011;15046;50.930;13.334;2023-07-08T06:15:26;8.25;;;3.88;;
27632;SDS011;15046;50.930;13.334;2023-07-08T06:17:52;4.85;;;3.10;;
27632;SDS011;15046;50.930;13.334;2023-07-08T06:20:18;5.63;;;3.25;;
27632;SDS011;15046;50.930;13.334;2023-07-08T06:22:44;9.25;;;3.70;;
27632;SDS011;15046;50.930;13.334;2023-07-08T06:25:09;7.30;;;4.03;;
27632;SDS011;15046;50.930;13.334;2023-07-08T06:27:35;6.60;;;3.88;;
27632;SDS011;15046;50.930;13.334;2023-07-08T06:30:01;10.75;;;3.72;;
27632;SDS011;15046;50.930;13.334;2023-07-08T06:32:27;9.50;;;3.53;;
27632;SDS011;15046;50.930;13.334;2023-07-08T06:34:53;6.00;;;3.47;;
27632;SDS011;15046;50.930;13.334;2023-07-08T06:37:19;6.60;;;4.13;;
27632;SDS011;15046;50.930;13.334;2023-07-08T06:39:46;6.05;;;3.47;;
27632;SDS011;15046;50.930;13.334;2023-07-08T06:42:12;6.90;;;3.83;;
27632;SDS011;15046;50.930;13.334;2023-07-08T06:44:40;7.22;;;3.65;;
27632;SDS011;15046;50.930;13.334;2023-07-08T06:47:08;7.55;;;4.35;;
27632;SDS011;15046;50.930;13.334;2023-07-08T06:49:34;8.65;;;4.40;;
27632;SDS011;15046;50.930;13.334;2023-07-08T06:52:03;7.47;;;4.20;;
27632;SDS011;15046;50.930;13.334;2023-07-08T06:54:29;7.43;;;4.05;;
27632;SDS011;15046;50.930;13.334;2023-07-08T06:56:55;9.05;;;4.10;;
27632;SDS011;15046;50.930;13.334;2023-07-08T06:59:21;9.70;;;4.40;;
27632;SDS011;15046;50.930;13.334;2023-07-08T07:01:47;7.32;;;3.88;;
27632;SDS011;15046;50.930;13.334;2023-07-08T07:04:13;5.72;;;3.55;;
27632;SDS011;15046;50.930;13.334;2023-07-08T07:06:39;9.95;;;4.28;;
27632;SDS011;15046;50.930;13.334;2023-07-08T07:09:05;7.88;;;4.18;;
27632;SDS011;15046;50.930;13.334;2023-07-08T07:11:31;7.28;;;4.28;;
27632;SDS011;15046;50.930;13.334;2023-07-08T07:13:57;15.80;;;4.57;;
27632;SDS011;15046;50.930;13.334;2023-07-08T07:16:24;10.00;;;4.45;;
27632;SDS011;15046;50.930;13.334;2023-07-08T07:18:50;6.60;;;4.43;;
27632;SDS011;15046;50.930;13.334;2023-07-08T07:21:17;7.25;;;4.13;;
27632;SDS011;15046;50.930;13.334;2023-07-08T07:23:43;7.97;;;4.78;;
27632;SDS011;15046;50.930;13.334;2023-07-08T07:26:09;8.68;;;4.85;;
27632;SDS011;15046;50.930;13.334;2023-07-08T07:28:35;6.38;;;4.00;;
27632;SDS011;15046;50.930;13.334;2023-07-08T07:31:03;7.78;;;4.13;;
27632;SDS011;15046;50.930;13.334;2023-07-08T07:33:31;7.60;;;4.40;;
27632;SDS011;15046;50.930;13.334;2023-07-08T07:35:57;7.25;;;4.03;;
27632;SDS011;15046;50.930;13.334;2023-07-08T07:38:23;8.63;;;3.90;;
27632;SDS011;15046;50.930;13.334;2023-07-08T07:40:53;6.35;;;4.07;;
27632;SDS011;15046;50.930;13.334;2023-07-08T07:43:20;8.23;;;4.57;;
27632;SDS011;15046;50.930;13.334;2023-07-08T07:45:51;8.70;;;3.97;;
27632;SDS011;15046;50.930;13.334;2023-07-08T07:50:45;7.72;;;3.67;;
27632;SDS011;15046;50.930;13.334;2023-07-08T07:53:12;7.95;;;3.95;;
27632;SDS011;15046;50.930;13.334;2023-07-08T07:55:38;6.57;;;4.20;;
27632;SDS011;15046;50.930;13.334;2023-07-08T07:58:03;6.47;;;4.13;;
27632;SDS011;15046;50.930;13.334;2023-07-08T08:00:30;7.07;;;3.90;;
27632;SDS011;15046;50.930;13.334;2023-07-08T08:02:56;10.40;;;4.40;;
27632;SDS011;15046;50.930;13.334;2023-07-08T08:05:22;6.38;;;3.88;;
27632;SDS011;15046;50.930;13.334;2023-07-08T08:07:48;9.07;;;4.18;;
27632;SDS011;15046;50.930;13.334;2023-07-08T08:10:14;6.35;;;3.53;;
27632;SDS011;15046;50.930;13.334;2023-07-08T08:12:40;8.73;;;3.90;;
27632;SDS011;15046;50.930;13.334;2023-07-08T08:15:07;6.85;;;3.67;;
27632;SDS011;15046;50.930;13.334;2023-07-08T08:17:33;6.38;;;4.05;;
27632;SDS011;15046;50.930;13.334;2023-07-08T08:19:59;8.75;;;4.03;;
27632;SDS011;15046;50.930;13.334;2023-07-08T08:22:27;7.63;;;4.53;;
27632;SDS011;15046;50.930;13.334;2023-07-08T08:24:54;5.40;;;3.55;;
27632;SDS011;15046;50.930;13.334;2023-07-08T08:27:19;5.30;;;3.67;;
27632;SDS011;15046;50.930;13.334;2023-07-08T08:29:45;6.43;;;4.03;;
27632;SDS011;15046;50.930;13.334;2023-07-08T08:32:11;5.75;;;3.55;;
27632;SDS011;15046;50.930;13.334;2023-07-08T08:34:39;7.05;;;3.67;;
27632;SDS011;15046;50.930;13.334;2023-07-08T08:37:05;6.38;;;3.78;;
27632;SDS011;15046;50.930;13.334;2023-07-08T08:39:30;7.00;;;3.85;;
27632;SDS011;15046;50.930;13.334;2023-07-08T08:41:56;7.47;;;3.65;;
27632;SDS011;15046;50.930;13.334;2023-07-08T08:44:28;8.45;;;3.97;;
27632;SDS011;15046;50.930;13.334;2023-07-08T08:47:00;6.05;;;3.65;;
27632;SDS011;15046;50.930;13.334;2023-07-08T08:49:37;6.28;;;3.42;;
27632;SDS011;15046;50.930;13.334;2023-07-08T08:52:13;5.22;;;3.28;;
27632;SDS011;15046;50.930;13.334;2023-07-08T08:54:40;6.28;;;3.50;;
27632;SDS011;15046;50.930;13.334;2023-07-08T08:57:11;6.32;;;4.05;;
27632;SDS011;15046;50.930;13.334;2023-07-08T08:59:52;6.32;;;4.20;;
27632;SDS011;15046;50.930;13.334;2023-07-08T09:05:10;5.57;;;3.50;;
27632;SDS011;15046;50.930;13.334;2023-07-08T09:10:35;8.50;;;3.95;;
27632;SDS011;15046;50.930;13.334;2023-07-08T09:13:22;7.00;;;3.83;;
27632;SDS011;15046;50.930;13.334;2023-07-08T09:15:54;7.68;;;3.85;;
27632;SDS011;15046;50.930;13.334;2023-07-08T09:21:24;7.68;;;3.45;;
27632;SDS011;15046;50.930;13.334;2023-07-08T09:24:23;8.93;;;3.97;;
27632;SDS011;15046;50.930;13.334;2023-07-08T09:27:06;5.85;;;3.17;;
27632;SDS011;15046;50.930;13.334;2023-07-08T09:29:33;5.78;;;3.38;;
27632;SDS011;15046;50.930;13.334;2023-07-08T09:32:00;5.00;;;3.30;;
27632;SDS011;15046;50.930;13.334;2023-07-08T09:34:49;4.82;;;3.20;;
27632;SDS011;15046;50.930;13.334;2023-07-08T09:39:55;5.70;;;3.60;;
27632;SDS011;15046;50.930;13.334;2023-07-08T09:42:23;6.13;;;4.03;;
27632;SDS011;15046;50.930;13.334;2023-07-08T09:44:56;5.80;;;3.40;;
27632;SDS011;15046;50.930;13.334;2023-07-08T09:47:25;6.13;;;3.53;;
27632;SDS011;15046;50.930;13.334;2023-07-08T09:49:58;7.20;;;3.40;;
27632;SDS011;15046;50.930;13.334;2023-07-08T09:52:24;5.57;;;3.17;;
27632;SDS011;15046;50.930;13.334;2023-07-08T09:54:51;5.07;;;3.05;;
27632;SDS011;15046;50.930;13.334;2023-07-08T09:57:22;5.13;;;3.13;;
27632;SDS011;15046;50.930;13.334;2023-07-08T09:59:59;9.40;;;3.10;;
27632;SDS011;15046;50.930;13.334;2023-07-08T10:02:38;5.93;;;3.55;;
27632;SDS011;15046;50.930;13.334;2023-07-08T10:05:15;6.75;;;3.53;;
27632;SDS011;15046;50.930;13.334;2023-07-08T10:07:48;5.10;;;3.30;;
27632;SDS011;15046;50.930;13.334;2023-07-08T10:10:19;5.90;;;3.28;;
27632;SDS011;15046;50.930;13.334;2023-07-08T10:12:56;5.70;;;3.45;;
27632;SDS011;15046;50.930;13.334;2023-07-08T10:15:38;5.45;;;3.47;;
27632;SDS011;15046;50.930;13.334;2023-07-08T10:18:13;7.15;;;3.55;;
27632;SDS011;15046;50.930;13.334;2023-07-08T10:20:47;6.00;;;3.38;;
27632;SDS011;15046;50.930;13.334;2023-07-08T10:25:49;4.90;;;3.13;;
27632;SDS011;15046;50.930;13.334;2023-07-08T10:28:31;5.65;;;3.35;;
27632;SDS011;15046;50.930;13.334;2023-07-08T10:42:15;5.72;;;3.17;;
27632;SDS011;15046;50.930;13.334;2023-07-08T10:56:16;6.80;;;3.50;;
27632;SDS011;15046;50.930;13.334;2023-07-08T11:01:21;4.85;;;3.30;;
27632;SDS011;15046;50.930;13.334;2023-07-08T11:06:44;7.53;;;3.10;;
27632;SDS011;15046;50.930;13.334;2023-07-08T11:09:21;4.30;;;2.70;;
27632;SDS011;15046;50.930;13.334;2023-07-08T11:12:09;5.03;;;3.28;;
27632;SDS011;15046;50.930;13.334;2023-07-08T11:17:49;5.20;;;3.17;;
27632;SDS011;15046;50.930;13.334;2023-07-08T11:20:50;6.13;;;2.85;;
27632;SDS011;15046;50.930;13.334;2023-07-08T11:23:29;5.63;;;3.10;;
27632;SDS011;15046;50.930;13.334;2023-07-08T11:26:07;6.07;;;3.17;;
27632;SDS011;15046;50.930;13.334;2023-07-08T11:28:51;4.72;;;3.13;;
27632;SDS011;15046;50.930;13.334;2023-07-08T11:31:19;5.68;;;3.22;;
27632;SDS011;15046;50.930;13.334;2023-07-08T11:33:47;7.43;;;3.35;;
27632;SDS011;15046;50.930;13.334;2023-07-08T11:36:13;6.30;;;3.47;;
27632;SDS011;15046;50.930;13.334;2023-07-08T11:38:50;6.32;;;3.22;;
27632;SDS011;15046;50.930;13.334;2023-07-08T11:41:20;9.18;;;3.33;;
27632;SDS011;15046;50.930;13.334;2023-07-08T11:43:51;4.72;;;2.95;;
27632;SDS011;15046;50.930;13.334;2023-07-08T11:46:22;6.40;;;3.40;;
27632;SDS011;15046;50.930;13.334;2023-07-08T11:48:51;6.85;;;3.47;;
27632;SDS011;15046;50.930;13.334;2023-07-08T11:51:19;7.13;;;3.20;;
27632;SDS011;15046;50.930;13.334;2023-07-08T11:56:47;6.28;;;3.80;;
27632;SDS011;15046;50.930;13.334;2023-07-08T11:59:15;5.93;;;3.40;;
27632;SDS011;15046;50.930;13.334;2023-07-08T12:01:47;6.25;;;2.70;;
27632;SDS011;15046;50.930;13.334;2023-07-08T12:06:54;5.07;;;2.88;;
27632;SDS011;15046;50.930;13.334;2023-07-08T12:09:58;5.25;;;3.00;;
27632;SDS011;15046;50.930;13.334;2023-07-08T12:12:30;5.65;;;2.95;;
27632;SDS011;15046;50.930;13.334;2023-07-08T12:17:52;9.32;;;3.60;;
27632;SDS011;15046;50.930;13.334;2023-07-08T12:20:23;6.22;;;3.38;;
27632;SDS011;15046;50.930;13.334;2023-07-08T12:22:54;5.10;;;3.20;;
27632;SDS011;15046;50.930;13.334;2023-07-08T12:25:22;5.28;;;3.33;;
27632;SDS011;15046;50.930;13.334;2023-07-08T12:27:50;4.88;;;2.58;;
27632;SDS011;15046;50.930;13.334;2023-07-08T12:30:17;6.50;;;3.22;;
27632;SDS011;15046;50.930;13.334;2023-07-08T12:32:43;5.35;;;3.45;;
27632;SDS011;15046;50.930;13.334;2023-07-08T12:35:31;4.90;;;3.40;;
27632;SDS011;15046;50.930;13.334;2023-07-08T12:38:01;7.63;;;3.03;;
27632;SDS011;15046;50.930;13.334;2023-07-08T12:40:43;5.40;;;3.22;;
27632;SDS011;15046;50.930;13.334;2023-07-08T12:43:10;5.00;;;3.63;;
27632;SDS011;15046;50.930;13.334;2023-07-08T12:45:36;6.03;;;3.17;;
27632;SDS011;15046;50.930;13.334;2023-07-08T12:48:02;5.45;;;3.40;;
27632;SDS011;15046;50.930;13.334;2023-07-08T12:50:30;5.15;;;3.30;;
27632;SDS011;15046;50.930;13.334;2023-07-08T12:52:56;4.32;;;3.10;;
27632;SDS011;15046;50.930;13.334;2023-07-08T12:55:22;5.28;;;3.53;;
27632;SDS011;15046;50.930;13.334;2023-07-08T12:57:50;5.05;;;3.55;;
27632;SDS011;15046;50.930;13.334;2023-07-08T13:02:59;5.60;;;3.42;;
27632;SDS011;15046;50.930;13.334;2023-07-08T13:05:39;8.18;;;3.45;;
27632;SDS011;15046;50.930;13.334;2023-07-08T13:08:07;7.10;;;3.38;;
27632;SDS011;15046;50.930;13.334;2023-07-08T13:10:37;5.25;;;3.30;;
27632;SDS011;15046;50.930;13.334;2023-07-08T13:13:04;5.90;;;3.20;;
27632;SDS011;15046;50.930;13.334;2023-07-08T13:15:36;4.90;;;3.70;;
27632;SDS011;15046;50.930;13.334;2023-07-08T13:18:05;4.10;;;2.97;;
27632;SDS011;15046;50.930;13.334;2023-07-08T13:20:39;5.10;;;3.58;;
27632;SDS011;15046;50.930;13.334;2023-07-08T13:23:12;6.72;;;3.45;;
27632;SDS011;15046;50.930;13.334;2023-07-08T13:25:38;6.40;;;3.78;;
27632;SDS011;15046;50.930;13.334;2023-07-08T13:28:17;5.68;;;3.65;;
27632;SDS011;15046;50.930;13.334;2023-07-08T13:30:55;5.40;;;3.22;;
27632;SDS011;15046;50.930;13.334;2023-07-08T13:33:29;5.60;;;3.00;;
27632;SDS011;15046;50.930;13.334;2023-07-08T13:35:56;5.30;;;3.10;;
27632;SDS011;15046;50.930;13.334;2023-07-08T13:38:23;7.05;;;3.38;;
27632;SDS011;15046;50.930;13.334;2023-07-08T13:40:54;6.57;;;3.25;;
27632;SDS011;15046;50.930;13.334;2023-07-08T13:43:34;5.30;;;3.22;;
27632;SDS011;15046;50.930;13.334;2023-07-08T13:46:02;5.82;;;3.83;;
27632;SDS011;15046;50.930;13.334;2023-07-08T13:56:14;7.00;;;3.65;;
27632;SDS011;15046;50.930;13.334;2023-07-08T13:58:46;6.30;;;3.65;;
27632;SDS011;15046;50.930;13.334;2023-07-08T14:01:18;8.38;;;4.03;;
27632;SDS011;15046;50.930;13.334;2023-07-08T14:03:46;6.38;;;4.00;;
27632;SDS011;15046;50.930;13.334;2023-07-08T14:06:16;5.13;;;3.10;;
27632;SDS011;15046;50.930;13.334;2023-07-08T14:08:43;6.20;;;3.10;;
27632;SDS011;15046;50.930;13.334;2023-07-08T14:11:09;7.30;;;4.00;;
27632;SDS011;15046;50.930;13.334;2023-07-08T14:13:36;5.82;;;3.45;;
27632;SDS011;15046;50.930;13.334;2023-07-08T14:16:02;6.15;;;3.22;;
27632;SDS011;15046;50.930;13.334;2023-07-08T14:18:31;4.78;;;3.25;;
27632;SDS011;15046;50.930;13.334;2023-07-08T14:20:57;5.28;;;3.65;;
27632;SDS011;15046;50.930;13.334;2023-07-08T14:23:24;8.35;;;3.70;;
27632;SDS011;15046;50.930;13.334;2023-07-08T14:25:49;4.70;;;3.58;;
27632;SDS011;15046;50.930;13.334;2023-07-08T14:28:15;4.00;;;2.65;;
27632;SDS011;15046;50.930;13.334;2023-07-08T14:30:43;5.20;;;3.30;;
27632;SDS011;15046;50.930;13.334;2023-07-08T14:33:10;4.65;;;3.30;;
27632;SDS011;15046;50.930;13.334;2023-07-08T14:35:37;7.10;;;3.17;;
27632;SDS011;15046;50.930;13.334;2023-07-08T14:38:08;5.50;;;3.47;;
27632;SDS011;15046;50.930;13.334;2023-07-08T14:40:37;5.07;;;3.60;;
27632;SDS011;15046;50.930;13.334;2023-07-08T14:43:05;5.05;;;3.38;;
27632;SDS011;15046;50.930;13.334;2023-07-08T14:45:36;4.65;;;3.05;;
27632;SDS011;15046;50.930;13.334;2023-07-08T14:48:09;6.07;;;3.47;;
27632;SDS011;15046;50.930;13.334;2023-07-08T14:50:36;5.72;;;3.38;;
27632;SDS011;15046;50.930;13.334;2023-07-08T14:53:02;4.82;;;3.33;;
27632;SDS011;15046;50.930;13.334;2023-07-08T14:55:28;6.95;;;4.03;;
27632;SDS011;15046;50.930;13.334;2023-07-08T14:57:54;6.93;;;3.58;;
27632;SDS011;15046;50.930;13.334;2023-07-08T15:00:23;5.20;;;3.70;;
27632;SDS011;15046;50.930;13.334;2023-07-08T15:02:50;5.80;;;3.72;;
27632;SDS011;15046;50.930;13.334;2023-07-08T15:05:21;6.30;;;4.38;;
27632;SDS011;15046;50.930;13.334;2023-07-08T15:07:49;5.07;;;3.50;;
27632;SDS011;15046;50.930;13.334;2023-07-08T15:10:16;4.65;;;3.10;;
27632;SDS011;15046;50.930;13.334;2023-07-08T15:12:43;7.25;;;3.85;;
27632;SDS011;15046;50.930;13.334;2023-07-08T15:15:13;6.25;;;3.65;;
27632;SDS011;15046;50.930;13.334;2023-07-08T15:17:53;7.75;;;3.53;;
27632;SDS011;15046;50.930;13.334;2023-07-08T15:20:19;5.68;;;3.53;;
27632;SDS011;15046;50.930;13.334;2023-07-08T15:22:46;7.10;;;3.53;;
27632;SDS011;15046;50.930;13.334;2023-07-08T15:25:13;6.35;;;3.42;;
27632;SDS011;15046;50.930;13.334;2023-07-08T15:27:40;5.20;;;3.38;;
27632;SDS011;15046;50.930;13.334;2023-07-08T15:30:16;5.20;;;3.53;;
27632;SDS011;15046;50.930;13.334;2023-07-08T15:32:43;5.25;;;2.97;;
27632;SDS011;15046;50.930;13.334;2023-07-08T15:35:28;6.95;;;3.45;;
27632;SDS011;15046;50.930;13.334;2023-07-08T15:37:57;6.55;;;3.60;;
27632;SDS011;15046;50.930;13.334;2023-07-08T15:40:24;5.50;;;3.38;;
27632;SDS011;15046;50.930;13.334;2023-07-08T15:45:22;6.75;;;3.72;;
27632;SDS011;15046;50.930;13.334;2023-07-08T15:47:50;4.82;;;3.22;;
27632;SDS011;15046;50.930;13.334;2023-07-08T15:50:19;7.50;;;3.30;;
27632;SDS011;15046;50.930;13.334;2023-07-08T15:52:47;4.85;;;3.47;;
27632;SDS011;15046;50.930;13.334;2023-07-08T15:55:13;5.40;;;3.60;;